Time;durP1;ratioP1;P1;durP2;ratioP2;P2;SDS_P1;SDS_P2;PMS_P1;PMS_P2;Temp;Humidity;BMP_temperature;BMP_pressure;BME280_temperature;BME280_humidity;BME280_pressure;Samples;Min_cycle;Max_cycle;Signal;HPM_P1;HPM_P2
2022/06/14 04:01:25;;;;;;;2.77;1.50;;;11.50;96.30;;;;;;5571858;23;20524;-77
2022/06/14 04:04:13;;;;;;;3.70;1.27;;;12.30;96.30;;;;;;4958040;28;21061;-75
2022/06/14 04:07:20;;;;;;;2.30;1.63;;;12.80;96.30;;;;;;4964521;28;20433;-76
2022/06/14 04:09:59;;;;;;;5.50;1.37;;;13.30;96.30;;;;;;4971701;28;20468;-75
2022/06/14 04:12:58;;;;;;;2.40;1.27;;;12.70;96.30;;;;;;4994450;28;20420;-74
2022/06/14 04:15:50;;;;;;;2.30;1.40;;;11.80;96.30;;;;;;4994535;28;20472;-74
2022/06/14 04:18:38;;;;;;;5.23;1.20;;;11.10;96.30;;;;;;4994070;28;20495;-75
2022/06/14 04:21:29;;;;;;;2.60;1.50;;;10.60;96.30;;;;;;4994605;28;20429;-75
2022/06/14 04:24:04;;;;;;;2.60;1.63;;;10.30;96.30;;;;;;4973739;28;20425;-75
2022/06/14 04:26:52;;;;;;;4.70;2.10;;;10.20;96.30;;;;;;4974739;28;20394;-75
2022/06/14 04:29:30;;;;;;;6.33;3.00;;;9.80;96.30;;;;;;4957170;28;20468;-75
2022/06/14 04:32:10;;;;;;;4.93;1.97;;;9.60;96.30;;;;;;4974872;28;20433;-75
2022/06/14 04:34:46;;;;;;;2.07;1.43;;;9.40;96.30;;;;;;4974966;28;20394;-73
2022/06/14 04:37:31;;;;;;;3.13;1.70;;;9.30;96.30;;;;;;4974725;28;20419;-75
2022/06/14 04:40:03;;;;;;;4.10;1.70;;;9.10;96.30;;;;;;4974537;28;20473;-74
2022/06/14 04:42:31;;;;;;;3.13;1.87;;;9.00;96.30;;;;;;4974379;28;20429;-76
2022/06/14 04:45:04;;;;;;;5.53;1.63;;;9.10;96.30;;;;;;4957348;28;20465;-74
2022/06/14 04:47:42;;;;;;;5.20;1.60;;;9.10;96.30;;;;;;4974032;28;20481;-74
2022/06/14 04:50:22;;;;;;;3.03;1.50;;;9.30;96.30;;;;;;4974698;28;20405;-74
2022/06/14 04:52:55;;;;;;;5.53;1.50;;;9.50;96.30;;;;;;4974584;28;20420;-74
2022/06/14 04:55:28;;;;;;;1.93;1.40;;;9.70;96.30;;;;;;4974502;28;20398;-75
2022/06/14 04:58:04;;;;;;;2.60;1.50;;;9.80;96.30;;;;;;4974024;28;20420;-74
2022/06/14 05:00:35;;;;;;;5.13;1.83;;;9.90;96.30;;;;;;4974181;28;20457;-74
2022/06/14 05:03:14;;;;;;;1.97;1.37;;;10.00;96.30;;;;;;4974429;28;20441;-75
2022/06/14 05:05:45;;;;;;;5.07;2.23;;;10.20;96.30;;;;;;4981843;28;20409;-75
2022/06/14 05:08:31;;;;;;;5.33;1.67;;;10.50;96.30;;;;;;4963009;28;20965;-75
2022/06/14 05:11:15;;;;;;;3.73;1.63;;;10.70;96.30;;;;;;4977301;28;20544;-75
2022/06/14 05:14:02;;;;;;;2.40;1.60;;;11.40;96.30;;;;;;4973349;28;20806;-76
2022/06/14 05:16:51;;;;;;;9.53;1.63;;;12.10;96.30;;;;;;4982017;28;20465;-75
2022/06/14 05:19:27;;;;;;;8.67;1.63;;;12.30;96.30;;;;;;4960691;28;20465;-75
2022/06/14 08:42:31;;;;;;;3.97;1.53;;;20.10;81.20;;;;;;6092691;23;20507;-77
2022/06/14 08:45:06;;;;;;;9.70;1.60;;;20.10;81.20;;;;;;4906950;29;20431;-78
2022/06/14 08:47:42;;;;;;;4.50;1.50;;;19.40;86.80;;;;;;4910148;29;20466;-77
2022/06/14 08:50:32;;;;;;;7.87;1.80;;;20.00;84.80;;;;;;4927124;29;20415;-77
2022/06/14 08:53:22;;;;;;;4.87;1.73;;;19.90;80.40;;;;;;4925251;29;20492;-77
2022/06/14 08:56:25;;;;;;;4.33;1.43;;;20.50;87.10;;;;;;4919736;29;20925;-77
2022/06/14 08:59:20;;;;;;;15.93;1.97;;;21.00;81.90;;;;;;4916331;29;20565;-79
2022/06/14 09:02:12;;;;;;;5.63;2.13;;;21.20;82.00;;;;;;4917275;29;20451;-77
2022/06/14 09:05:09;;;;;;;5.37;1.50;;;20.40;80.90;;;;;;4909746;29;20495;-78
2022/06/14 09:08:05;;;;;;;8.30;2.10;;;20.90;84.00;;;;;;4900632;29;20475;-78
2022/06/14 09:10:59;;;;;;;14.60;2.23;;;21.50;81.80;;;;;;4923200;29;20455;-77
2022/06/14 09:14:01;;;;;;;5.57;1.50;;;22.30;82.00;;;;;;4907265;29;20436;-77
2022/06/14 09:17:12;;;;;;;5.07;1.93;;;22.50;78.00;;;;;;5065045;28;20519;-79
2022/06/14 09:20:02;;;;;;;5.90;1.60;;;22.80;78.10;;;;;;5064999;28;20424;-77
2022/06/14 09:22:43;;;;;;;6.90;1.30;;;24.20;75.40;;;;;;5062474;28;20445;-78
2022/06/14 09:25:32;;;;;;;5.83;1.33;;;23.70;73.30;;;;;;5063583;28;20536;-78
2022/06/14 09:28:09;;;;;;;8.77;1.73;;;22.20;75.50;;;;;;5063355;28;20421;-76
2022/06/14 09:31:03;;;;;;;4.03;1.43;;;20.80;79.60;;;;;;5065568;28;20520;-78
2022/06/14 09:33:44;;;;;;;9.43;1.40;;;19.80;82.90;;;;;;5062715;28;20775;-77
2022/06/14 09:36:43;;;;;;;5.53;1.87;;;19.40;82.30;;;;;;5064505;28;20986;-78
2022/06/14 09:39:23;;;;;;;6.03;1.70;;;19.00;85.20;;;;;;5063631;28;20405;-78
2022/06/14 09:42:07;;;;;;;3.10;1.40;;;19.60;81.00;;;;;;5063910;28;20433;-76
2022/06/14 09:45:02;;;;;;;2.80;1.10;;;19.90;81.70;;;;;;5064332;28;20463;-77
2022/06/14 09:47:41;;;;;;;4.03;1.60;;;19.80;85.80;;;;;;5064125;28;20418;-76
2022/06/14 09:50:25;;;;;;;4.53;1.50;;;19.60;82.70;;;;;;5063989;28;20458;-79
2022/06/14 09:53:06;;;;;;;5.27;1.10;;;20.50;84.80;;;;;;5063253;28;20417;-76
2022/06/14 09:55:46;;;;;;;5.23;1.73;;;21.80;76.50;;;;;;5063889;28;20460;-76
2022/06/14 09:58:28;;;;;;;6.70;1.93;;;22.70;79.20;;;;;;5063988;28;20812;-78
2022/06/14 10:01:02;;;;;;;4.50;1.60;;;22.10;77.50;;;;;;5062319;28;20451;-77
2022/06/14 10:04:06;;;;;;;10.47;1.70;;;21.50;79.50;;;;;;5063459;28;20420;-80
2022/06/14 10:07:14;;;;;;;5.50;1.50;;;21.60;81.50;;;;;;5054394;28;20551;-77
2022/06/14 10:10:01;;;;;;;5.57;1.57;;;21.40;81.20;;;;;;5058119;28;20944;-77
2022/06/14 10:12:56;;;;;;;10.00;1.13;;;22.30;79.80;;;;;;5052012;28;20467;-77
2022/06/14 10:15:39;;;;;;;5.03;1.83;;;21.80;77.40;;;;;;5062697;28;20496;-78
2022/06/14 10:18:28;;;;;;;3.00;1.53;;;22.00;76.90;;;;;;5062543;28;20768;-77
2022/06/14 10:21:02;;;;;;;7.43;1.50;;;20.80;77.50;;;;;;5062225;28;20552;-77
2022/06/14 10:23:57;;;;;;;5.40;1.40;;;19.90;80.80;;;;;;5064322;28;20513;-78
2022/06/14 10:29:45;;;;;;;3.23;1.10;;;19.70;83.00;;;;;;5050507;28;20432;-76
2022/06/14 10:32:20;;;;;;;4.10;2.00;;;20.10;84.80;;;;;;5047865;28;20536;-77
2022/06/14 10:34:52;;;;;;;3.50;1.20;;;20.80;79.00;;;;;;5048795;28;20919;-78
2022/06/14 10:37:56;;;;;;;3.80;1.67;;;21.70;82.20;;;;;;5046592;28;20430;-77
2022/06/14 10:40:53;;;;;;;19.70;1.70;;;22.30;75.10;;;;;;5045067;28;20406;-77
2022/06/14 10:43:26;;;;;;;4.90;1.50;;;22.60;78.50;;;;;;5047465;28;20766;-77
2022/06/14 10:45:57;;;;;;;3.07;1.30;;;23.00;75.50;;;;;;5046435;28;20410;-77
2022/06/14 10:48:48;;;;;;;7.50;1.90;;;22.10;75.30;;;;;;5048524;28;20467;-77
2022/06/14 10:51:26;;;;;;;5.33;1.60;;;20.80;76.90;;;;;;5046717;28;20780;-77
2022/06/14 10:54:21;;;;;;;7.80;1.90;;;19.90;81.30;;;;;;5052649;28;20421;-78
2022/06/14 10:57:01;;;;;;;3.77;1.40;;;20.80;81.70;;;;;;5048571;28;20436;-76
2022/06/14 11:00:03;;;;;;;6.50;2.67;;;20.70;78.50;;;;;;5048416;28;20426;-77
2022/06/14 11:02:35;;;;;;;7.60;1.43;;;21.10;79.60;;;;;;5048961;28;20518;-76
2022/06/14 11:05:16;;;;;;;5.00;1.47;;;21.30;75.40;;;;;;5055504;28;20422;-77
2022/06/14 11:08:12;;;;;;;3.20;1.27;;;21.20;76.50;;;;;;5056792;28;20768;-77
2022/06/14 12:57:18;;;;;;;3.23;1.40;;;24.10;70.80;;;;;;5387313;22;20499;-79
2022/06/14 13:00:19;;;;;;;5.77;1.70;;;23.60;72.60;;;;;;5014952;28;20418;-80
2022/06/14 13:03:04;;;;;;;1.80;1.10;;;23.10;74.20;;;;;;4995243;28;20405;-80
2022/06/14 13:05:40;;;;;;;4.47;2.00;;;23.00;72.20;;;;;;4978252;28;20448;-79
2022/06/14 13:08:47;;;;;;;4.33;1.40;;;22.60;74.80;;;;;;4994953;28;20444;-80
2022/06/14 13:11:41;;;;;;;4.93;1.00;;;22.80;72.20;;;;;;4987282;28;20444;-79
2022/06/14 13:14:11;;;;;;;5.00;1.30;;;22.80;74.70;;;;;;4996282;28;20415;-79
2022/06/14 13:17:02;;;;;;;5.70;1.30;;;23.50;70.80;;;;;;4996990;28;20460;-79
2022/06/14 13:20:10;;;;;;;2.43;1.07;;;23.70;71.00;;;;;;4995938;28;20405;-80
2022/06/14 13:23:07;;;;;;;4.33;1.30;;;24.50;71.60;;;;;;4994080;28;20971;-79
2022/06/14 13:25:48;;;;;;;6.47;1.27;;;24.20;72.50;;;;;;4981795;28;20421;-79
2022/06/14 13:28:32;;;;;;;3.57;1.30;;;24.10;71.50;;;;;;5009328;28;20428;-80
2022/06/14 13:31:23;;;;;;;2.90;1.00;;;24.00;73.00;;;;;;4991369;28;20452;-79
2022/06/14 13:34:28;;;;;;;3.17;1.23;;;23.80;69.40;;;;;;4990687;28;20428;-79
2022/06/14 13:37:44;;;;;;;4.67;1.50;;;23.60;74.20;;;;;;4984238;28;20509;-78
2022/06/14 13:40:40;;;;;;;5.27;1.30;;;24.30;70.60;;;;;;4934258;29;20435;-78
2022/06/14 13:43:18;;;;;;;5.17;1.23;;;24.80;70.80;;;;;;4932249;29;20415;-78
2022/06/14 13:46:02;;;;;;;5.27;1.73;;;24.80;69.00;;;;;;4976883;28;20412;-78
2022/06/14 13:48:40;;;;;;;13.63;2.30;;;24.70;69.20;;;;;;4991479;28;20971;-78
2022/06/14 13:51:24;;;;;;;4.53;1.60;;;24.40;70.20;;;;;;4991563;28;20842;-78
2022/06/14 13:54:01;;;;;;;3.10;1.10;;;24.60;71.40;;;;;;4972988;28;20424;-78
2022/06/14 13:56:38;;;;;;;7.20;1.50;;;24.70;67.50;;;;;;4971698;28;20467;-78
2022/06/14 13:59:13;;;;;;;5.00;1.27;;;24.60;69.90;;;;;;4992098;28;20412;-79
2022/06/14 14:02:07;;;;;;;4.80;1.33;;;24.40;67.40;;;;;;4993199;28;20451;-78
2022/06/14 14:04:47;;;;;;;4.13;2.07;;;23.70;69.50;;;;;;4995885;28;20415;-78
2022/06/14 14:07:32;;;;;;;4.20;1.23;;;24.00;69.30;;;;;;4978089;28;20776;-78
2022/06/14 14:10:21;;;;;;;7.53;1.70;;;24.70;69.60;;;;;;4978560;28;20813;-78
2022/06/14 14:12:54;;;;;;;3.83;1.40;;;24.40;70.50;;;;;;4975073;28;20421;-78
2022/06/14 14:15:34;;;;;;;3.30;1.43;;;24.60;71.10;;;;;;4976312;28;20453;-78
2022/06/14 14:18:09;;;;;;;5.37;1.40;;;24.80;71.30;;;;;;4958589;28;20448;-78
2022/06/14 14:20:34;;;;;;;3.33;1.63;;;24.80;69.20;;;;;;4974756;28;20444;-78
2022/06/14 14:23:27;;;;;;;5.60;1.57;;;25.00;70.20;;;;;;4975117;28;20424;-80
2022/06/14 14:26:05;;;;;;;5.47;1.70;;;24.60;68.10;;;;;;4976193;28;20547;-76
2022/06/14 14:29:11;;;;;;;8.10;1.57;;;24.10;67.70;;;;;;4965687;28;20424;-78
2022/06/14 14:31:51;;;;;;;6.40;1.50;;;23.40;72.10;;;;;;4992726;28;20523;-77
2022/06/14 14:34:26;;;;;;;4.10;1.40;;;23.50;71.80;;;;;;4994597;28;20428;-77
2022/06/14 14:37:28;;;;;;;4.90;1.43;;;23.60;68.20;;;;;;4994497;28;20420;-78
2022/06/14 14:40:24;;;;;;;2.23;1.27;;;22.40;69.10;;;;;;4977786;28;20429;-78
2022/06/14 14:43:16;;;;;;;2.90;1.17;;;22.60;72.70;;;;;;4977667;28;20425;-77
2022/06/14 14:45:46;;;;;;;3.27;1.63;;;22.70;71.00;;;;;;4977541;28;20413;-78
2022/06/14 14:48:43;;;;;;;7.13;1.80;;;22.90;69.00;;;;;;4994955;28;20436;-78
2022/06/14 14:51:25;;;;;;;4.63;1.30;;;23.00;68.80;;;;;;4994689;28;20457;-78
2022/06/14 14:54:17;;;;;;;8.10;1.50;;;22.80;72.00;;;;;;4977675;28;20499;-78
2022/06/14 14:57:07;;;;;;;3.40;1.30;;;23.40;71.20;;;;;;4994954;28;20995;-77
2022/06/14 14:59:43;;;;;;;2.13;1.10;;;23.50;70.30;;;;;;4976973;28;20847;-78
2022/06/14 15:05:40;;;;;;;2.30;1.27;;;23.60;69.60;;;;;;4994853;28;21016;-78
2022/06/14 15:08:27;;;;;;;7.87;1.60;;;23.80;72.50;;;;;;4976567;28;20516;-78
2022/06/14 15:10:55;;;;;;;5.97;1.40;;;23.90;67.60;;;;;;4976842;28;20444;-78
2022/06/14 15:13:36;;;;;;;4.27;1.30;;;23.70;70.60;;;;;;4994352;28;20433;-78
2022/06/14 15:16:16;;;;;;;2.80;1.20;;;23.60;69.40;;;;;;4976836;28;21065;-78
2022/06/14 15:21:31;;;;;;;6.63;1.40;;;23.10;68.60;;;;;;4994574;28;20431;-79
2022/06/14 15:24:12;;;;;;;9.23;1.60;;;22.60;68.60;;;;;;4994406;28;20823;-78
2022/06/14 15:26:44;;;;;;;6.80;1.20;;;22.40;70.70;;;;;;4994079;28;21192;-78
2022/06/14 15:29:24;;;;;;;4.07;1.50;;;22.40;70.90;;;;;;4994061;28;20778;-78
2022/06/14 15:32:12;;;;;;;1.87;1.00;;;22.50;72.20;;;;;;4993482;28;20440;-78
2022/06/14 15:34:50;;;;;;;5.93;1.17;;;22.30;72.00;;;;;;4985266;28;20443;-79
2022/06/14 15:37:30;;;;;;;2.40;1.10;;;22.20;72.80;;;;;;4983908;28;20413;-79
2022/06/14 15:40:17;;;;;;;4.60;1.67;;;22.30;71.90;;;;;;4996624;28;20433;-78
2022/06/14 15:43:08;;;;;;;5.13;1.10;;;22.40;70.40;;;;;;4996593;28;20431;-79
2022/06/14 15:45:47;;;;;;;3.63;1.00;;;22.10;71.50;;;;;;4994532;28;20471;-78
2022/06/14 15:48:39;;;;;;;2.33;1.40;;;22.20;72.80;;;;;;4976597;28;20428;-78
2022/06/14 15:51:09;;;;;;;2.60;1.20;;;22.40;70.70;;;;;;4998591;28;20476;-78
2022/06/14 15:53:45;;;;;;;2.70;1.10;;;22.90;72.50;;;;;;4994186;28;20416;-79
2022/06/14 15:56:21;;;;;;;7.47;1.43;;;22.80;69.10;;;;;;4976466;28;20867;-80
2022/06/14 15:58:53;;;;;;;2.07;1.10;;;22.40;72.50;;;;;;4994520;28;20416;-79
2022/06/14 16:01:25;;;;;;;11.50;1.97;;;22.60;72.40;;;;;;4994325;28;20428;-79
2022/06/14 16:04:02;;;;;;;2.30;1.20;;;22.40;69.30;;;;;;4994319;28;20412;-79
2022/06/14 16:06:33;;;;;;;5.70;1.33;;;21.90;69.30;;;;;;4977678;28;20424;-79
2022/06/14 16:09:10;;;;;;;3.80;1.40;;;22.30;69.50;;;;;;4995174;28;20424;-79
2022/06/14 16:11:44;;;;;;;7.40;1.20;;;21.80;73.20;;;;;;4977549;28;20440;-79
2022/06/14 16:14:12;;;;;;;6.07;1.20;;;21.70;72.10;;;;;;4996078;28;20413;-80
2022/06/14 16:16:43;;;;;;;1.60;0.93;;;21.40;73.00;;;;;;4996542;28;20491;-81
2022/06/14 16:19:29;;;;;;;3.87;1.40;;;21.50;72.40;;;;;;4996889;28;20417;-81
2022/06/14 16:22:01;;;;;;;1.97;1.00;;;21.50;73.00;;;;;;4995834;28;20483;-78
2022/06/14 16:24:29;;;;;;;3.40;0.90;;;21.60;72.60;;;;;;4993306;28;20407;-78
2022/06/14 16:27:29;;;;;;;4.10;1.17;;;21.40;73.40;;;;;;4994827;28;20432;-78
2022/06/14 16:30:11;;;;;;;58.40;47.90;;;21.60;73.50;;;;;;4976210;28;20409;-78
2022/06/14 16:33:11;;;;;;;11.37;10.37;;;21.50;73.00;;;;;;4993396;28;20417;-78
2022/06/14 16:35:44;;;;;;;1.93;1.23;;;21.60;73.60;;;;;;4993021;28;20459;-79
2022/06/14 16:38:27;;;;;;;6.07;1.70;;;21.90;72.60;;;;;;4992642;28;20404;-79
2022/06/14 16:41:13;;;;;;;4.87;1.40;;;21.90;73.40;;;;;;4993512;28;20433;-79
2022/06/14 16:43:42;;;;;;;3.40;1.33;;;21.50;72.80;;;;;;4973401;28;20436;-79
2022/06/14 16:46:18;;;;;;;2.90;1.20;;;21.30;73.70;;;;;;4973792;28;20469;-78
2022/06/14 16:49:19;;;;;;;5.10;1.47;;;21.20;73.80;;;;;;4971804;28;20471;-78
2022/06/14 16:51:52;;;;;;;5.90;1.90;;;21.40;74.30;;;;;;4975236;28;20449;-79
2022/06/14 16:54:25;;;;;;;4.00;1.37;;;21.50;74.00;;;;;;4993139;28;20417;-79
2022/06/14 16:57:26;;;;;;;3.43;1.10;;;21.00;73.40;;;;;;4993269;28;20439;-79
2022/06/14 17:00:07;;;;;;;3.97;1.30;;;20.80;75.10;;;;;;4993651;28;20978;-79
2022/06/14 17:03:10;;;;;;;2.20;1.10;;;20.80;75.30;;;;;;4993741;28;20800;-80
2022/06/14 17:06:03;;;;;;;2.07;1.10;;;20.60;75.20;;;;;;4985109;28;20431;-80
2022/06/14 17:08:51;;;;;;;2.90;1.30;;;20.40;76.20;;;;;;4997350;28;20397;-78
2022/06/14 17:11:26;;;;;;;4.73;1.30;;;20.50;77.00;;;;;;4992522;28;20803;-79
2022/06/14 17:14:13;;;;;;;5.40;1.13;;;20.60;77.90;;;;;;4992235;28;20428;-79
2022/06/14 17:16:47;;;;;;;2.67;1.00;;;20.70;78.40;;;;;;4992307;28;20474;-79
2022/06/14 17:19:19;;;;;;;3.37;1.10;;;20.70;75.90;;;;;;4993116;28;20424;-79
2022/06/14 17:21:56;;;;;;;3.73;1.37;;;20.60;78.00;;;;;;4973830;28;20469;-79
2022/06/14 17:24:34;;;;;;;5.40;1.30;;;20.40;77.80;;;;;;4995566;28;20418;-79
2022/06/14 17:30:08;;;;;;;4.43;1.13;;;20.00;77.90;;;;;;5008162;28;20451;-78
2022/06/14 17:32:53;;;;;;;3.57;1.10;;;19.80;80.00;;;;;;4993217;28;20435;-78
2022/06/14 17:35:28;;;;;;;7.00;1.40;;;19.70;79.60;;;;;;5012718;28;20439;-79
2022/06/14 17:38:19;;;;;;;7.40;1.53;;;19.50;79.40;;;;;;5015298;28;20400;-79
2022/06/14 17:40:51;;;;;;;2.87;1.17;;;19.30;80.00;;;;;;4999170;28;20443;-79
2022/06/14 17:43:26;;;;;;;3.93;0.80;;;19.20;82.10;;;;;;5016158;28;20409;-78
2022/06/14 17:45:57;;;;;;;4.90;1.40;;;19.00;82.90;;;;;;5015923;28;20441;-79
2022/06/14 17:48:41;;;;;;;3.00;1.20;;;18.90;82.80;;;;;;5008763;28;20423;-79
2022/06/14 17:51:43;;;;;;;4.97;1.60;;;18.70;83.50;;;;;;5003246;28;20822;-78
2022/06/14 17:54:26;;;;;;;2.30;1.00;;;18.60;83.90;;;;;;5012348;28;20503;-78
2022/06/14 17:57:26;;;;;;;3.03;1.33;;;18.30;86.10;;;;;;5001791;28;20943;-78
2022/06/14 18:00:09;;;;;;;6.87;1.30;;;18.10;85.00;;;;;;4981107;28;20946;-79
2022/06/14 18:02:58;;;;;;;1.97;0.90;;;18.00;86.70;;;;;;5003575;28;20428;-77
2022/06/14 18:05:43;;;;;;;6.53;1.23;;;18.00;88.10;;;;;;5010099;28;20432;-77
2022/06/14 18:08:49;;;;;;;9.93;1.33;;;17.90;88.90;;;;;;4995838;28;20408;-77
2022/06/14 18:11:17;;;;;;;4.47;1.20;;;17.90;89.00;;;;;;4994958;28;20789;-77
2022/06/14 18:13:55;;;;;;;5.90;1.30;;;17.90;88.10;;;;;;4978052;28;20451;-77
2022/06/14 18:16:45;;;;;;;4.63;0.90;;;17.90;87.20;;;;;;5002108;28;20468;-77
2022/06/14 18:22:38;;;;;;;3.13;1.17;;;17.60;89.50;;;;;;4993636;28;20451;-77
2022/06/14 18:25:08;;;;;;;3.53;0.80;;;17.30;89.50;;;;;;4995639;28;20499;-77
2022/06/14 18:27:34;;;;;;;3.07;1.30;;;17.10;89.20;;;;;;4996634;28;20421;-77
2022/06/14 18:30:07;;;;;;;2.53;1.10;;;17.00;89.70;;;;;;4997949;28;20530;-75
2022/06/14 18:32:38;;;;;;;2.73;1.30;;;16.80;90.80;;;;;;4999755;28;20449;-76
2022/06/14 18:35:13;;;;;;;2.07;1.13;;;16.60;90.70;;;;;;4995325;28;20456;-75
2022/06/14 18:37:41;;;;;;;3.57;1.37;;;16.50;93.70;;;;;;4994073;28;20463;-76
2022/06/14 18:40:19;;;;;;;4.10;1.30;;;16.20;94.60;;;;;;4995131;28;20412;-75
2022/06/14 18:42:44;;;;;;;1.73;1.00;;;15.90;95.60;;;;;;4995012;28;20447;-75
2022/06/14 18:45:13;;;;;;;4.13;1.40;;;15.50;96.30;;;;;;4994827;28;20844;-75
2022/06/14 18:48:04;;;;;;;4.13;1.10;;;15.40;96.30;;;;;;4993355;28;20612;-76
2022/06/14 18:50:41;;;;;;;5.57;1.93;;;15.20;96.30;;;;;;4994501;28;20413;-75
2022/06/14 18:53:06;;;;;;;4.70;1.20;;;15.00;96.30;;;;;;4994869;28;20400;-75
2022/06/14 18:55:38;;;;;;;4.47;1.40;;;14.90;96.30;;;;;;4977040;28;20460;-75
2022/06/14 18:58:18;;;;;;;1.97;1.30;;;14.70;96.30;;;;;;4994090;28;20187;-77
2022/06/14 19:01:15;;;;;;;3.20;1.10;;;14.60;96.30;;;;;;4994318;28;20420;-75
2022/06/14 19:03:44;;;;;;;7.73;1.37;;;14.60;96.30;;;;;;4978822;28;20417;-75
2022/06/14 19:06:17;;;;;;;7.83;1.50;;;14.50;96.30;;;;;;4995412;28;20432;-78
2022/06/14 19:08:56;;;;;;;6.53;1.40;;;14.30;96.30;;;;;;4991585;28;20423;-76
2022/06/14 19:11:42;;;;;;;5.20;1.70;;;14.00;96.30;;;;;;4992871;28;20530;-75
2022/06/14 19:14:16;;;;;;;3.83;1.20;;;13.80;96.30;;;;;;4993008;28;20431;-75
2022/06/14 19:16:59;;;;;;;5.63;1.60;;;13.60;96.30;;;;;;4972103;28;20496;-75
2022/06/14 19:19:34;;;;;;;4.57;1.30;;;13.40;96.30;;;;;;4993023;28;20462;-77
2022/06/14 19:22:18;;;;;;;3.10;1.10;;;13.30;96.30;;;;;;4991855;28;20845;-75
2022/06/14 19:25:18;;;;;;;2.50;1.30;;;13.00;96.30;;;;;;4995229;28;20432;-75
2022/06/14 19:27:51;;;;;;;4.20;1.30;;;12.80;96.30;;;;;;4974121;28;20421;-74
2022/06/14 19:30:21;;;;;;;3.23;1.50;;;12.60;96.30;;;;;;4993324;28;20456;-74
2022/06/14 19:33:02;;;;;;;3.20;1.43;;;12.60;96.30;;;;;;4974637;28;20413;-77
2022/06/14 19:35:33;;;;;;;2.20;1.00;;;12.40;96.30;;;;;;4993326;28;20979;-74
2022/06/14 19:38:07;;;;;;;2.40;1.20;;;12.40;96.30;;;;;;4989239;28;20393;-74
2022/06/14 19:40:49;;;;;;;5.70;1.47;;;12.30;96.30;;;;;;4992017;28;20748;-75
2022/06/14 19:43:30;;;;;;;5.53;1.33;;;12.20;96.30;;;;;;4991695;28;20412;-74
2022/06/14 19:46:09;;;;;;;2.40;1.20;;;12.10;96.30;;;;;;4990922;28;20409;-74
2022/06/14 19:51:22;;;;;;;4.87;1.53;;;12.00;96.30;;;;;;4992449;28;20435;-74
2022/06/14 19:53:49;;;;;;;3.00;1.53;;;12.00;96.30;;;;;;4992934;28;20448;-74
2022/06/14 19:56:15;;;;;;;4.53;1.90;;;12.00;96.30;;;;;;4992759;28;20464;-74
2022/06/14 19:58:45;;;;;;;7.80;1.60;;;12.10;96.30;;;;;;4992096;28;20429;-73
2022/06/14 20:01:43;;;;;;;3.67;1.50;;;12.10;96.30;;;;;;4992520;28;20872;-73
2022/06/14 20:04:19;;;;;;;3.77;1.60;;;12.00;96.30;;;;;;4991617;28;20508;-74
2022/06/14 20:06:54;;;;;;;4.67;1.90;;;11.80;96.30;;;;;;4990921;28;20939;-74
2022/06/14 20:09:22;;;;;;;7.93;1.97;;;11.80;96.30;;;;;;4999966;28;20495;-76
2022/06/14 20:11:48;;;;;;;3.00;1.47;;;11.80;96.30;;;;;;4999803;28;20459;-76
2022/06/14 20:14:17;;;;;;;5.03;2.00;;;11.70;96.30;;;;;;4976857;28;20416;-75
2022/06/14 20:17:01;;;;;;;4.73;1.67;;;11.60;96.30;;;;;;4992391;28;20188;-76
2022/06/14 20:19:50;;;;;;;5.13;1.50;;;11.50;96.30;;;;;;4991929;28;20828;-77
2022/06/14 20:22:17;;;;;;;2.47;1.30;;;11.50;96.30;;;;;;4990445;28;20428;-74
2022/06/14 20:24:42;;;;;;;1.90;1.40;;;11.50;96.30;;;;;;4992118;28;20409;-75
2022/06/14 20:27:13;;;;;;;5.80;1.53;;;11.50;96.30;;;;;;4972037;28;20425;-75
2022/06/14 20:29:44;;;;;;;7.20;1.67;;;11.70;96.30;;;;;;4992066;28;20900;-75
2022/06/14 20:32:09;;;;;;;2.13;1.23;;;11.90;96.30;;;;;;4992148;28;20448;-75
2022/06/14 20:34:50;;;;;;;3.13;1.40;;;11.80;96.30;;;;;;4992443;28;20770;-76
2022/06/14 20:37:17;;;;;;;2.77;1.50;;;11.70;96.30;;;;;;4990383;28;20181;-75
2022/06/14 20:39:53;;;;;;;3.90;1.60;;;11.50;96.30;;;;;;4991864;28;20425;-74
2022/06/14 20:42:22;;;;;;;5.90;2.00;;;11.50;96.30;;;;;;4976986;28;20482;-75
2022/06/14 20:44:53;;;;;;;8.90;1.90;;;11.50;96.30;;;;;;4992512;28;20416;-77
2022/06/14 20:47:21;;;;;;;3.67;1.37;;;11.40;96.30;;;;;;4975848;28;20423;-75
2022/06/14 20:49:47;;;;;;;3.40;1.80;;;11.30;96.30;;;;;;4994206;28;20417;-75
2022/06/14 20:52:14;;;;;;;6.27;1.87;;;11.20;96.30;;;;;;4986688;28;20448;-75
2022/06/14 20:54:42;;;;;;;2.80;2.03;;;11.10;96.30;;;;;;4994810;28;20407;-76
2022/06/14 20:57:08;;;;;;;4.33;1.73;;;11.10;96.30;;;;;;4980703;28;20611;-76
2022/06/14 20:59:35;;;;;;;3.53;1.43;;;11.10;96.30;;;;;;4996066;28;21207;-75
2022/06/14 21:02:03;;;;;;;3.73;1.30;;;11.00;96.30;;;;;;4991466;28;20463;-77
2022/06/14 21:04:29;;;;;;;6.63;2.00;;;11.00;96.30;;;;;;4992718;28;20439;-76
2022/06/14 21:06:55;;;;;;;2.70;1.73;;;11.00;96.30;;;;;;4980005;28;20430;-76
2022/06/14 21:09:24;;;;;;;5.77;1.93;;;10.90;96.30;;;;;;4998795;28;20189;-75
2022/06/14 21:11:59;;;;;;;5.80;1.87;;;10.90;96.30;;;;;;5003162;28;20972;-77
2022/06/14 21:14:36;;;;;;;2.33;1.70;;;10.80;96.30;;;;;;5003329;28;20424;-76
2022/06/14 21:17:03;;;;;;;3.80;1.50;;;10.80;96.30;;;;;;4992778;28;20431;-76
2022/06/14 21:19:31;;;;;;;5.63;1.80;;;10.70;96.30;;;;;;4990853;28;20427;-77
2022/06/14 21:21:59;;;;;;;2.40;1.50;;;10.50;96.30;;;;;;4997917;28;20450;-76
2022/06/14 21:24:42;;;;;;;6.53;2.00;;;10.50;96.30;;;;;;5002095;28;20464;-77
2022/06/14 21:27:11;;;;;;;3.73;1.80;;;10.40;96.30;;;;;;5001608;28;20971;-76
2022/06/14 21:29:50;;;;;;;3.57;1.60;;;10.30;96.30;;;;;;5000212;28;20447;-77
2022/06/14 21:32:17;;;;;;;1.57;1.20;;;10.20;96.30;;;;;;4999698;28;20962;-76
2022/06/14 21:34:59;;;;;;;3.03;1.40;;;10.20;96.30;;;;;;5001292;28;20518;-75
2022/06/14 21:37:46;;;;;;;4.63;1.80;;;10.10;96.30;;;;;;4998246;28;20465;-76
2022/06/14 21:40:25;;;;;;;8.00;2.10;;;10.00;96.30;;;;;;5001069;28;20480;-76
2022/06/14 21:42:53;;;;;;;3.53;1.50;;;10.00;96.30;;;;;;4999752;28;20455;-77
2022/06/14 21:45:21;;;;;;;3.53;1.40;;;10.00;96.30;;;;;;4998871;28;20432;-77
2022/06/14 21:47:47;;;;;;;3.70;2.10;;;9.90;96.30;;;;;;4998882;28;20519;-77
2022/06/14 21:50:12;;;;;;;4.50;1.60;;;9.80;96.30;;;;;;5000919;28;20497;-76
2022/06/14 21:52:38;;;;;;;2.80;1.60;;;9.70;96.30;;;;;;4984485;28;20201;-76
2022/06/14 21:55:08;;;;;;;6.13;1.93;;;9.70;96.30;;;;;;4982281;28;20215;-76
2022/06/14 21:57:35;;;;;;;5.43;1.57;;;9.70;96.30;;;;;;4997773;28;20212;-77
2022/06/14 22:00:03;;;;;;;2.90;1.50;;;9.60;96.30;;;;;;4998340;28;20506;-76
2022/06/14 22:02:43;;;;;;;8.00;1.80;;;9.70;96.30;;;;;;5000228;28;20448;-77
2022/06/14 22:05:08;;;;;;;2.03;1.80;;;9.60;96.30;;;;;;4984420;28;20443;-77
2022/06/14 22:07:35;;;;;;;6.40;2.07;;;9.60;96.30;;;;;;4975010;28;20519;-77
2022/06/14 22:10:00;;;;;;;6.40;2.10;;;9.50;96.30;;;;;;4983882;28;20177;-76
2022/06/14 22:12:31;;;;;;;3.07;1.87;;;9.60;96.30;;;;;;4983090;28;20449;-76
2022/06/14 22:15:06;;;;;;;5.97;2.27;;;9.60;96.30;;;;;;4995322;28;20236;-75
2022/06/14 22:17:32;;;;;;;2.73;1.30;;;9.50;96.30;;;;;;4995154;28;20452;-76
2022/06/14 22:19:57;;;;;;;6.63;2.00;;;9.60;96.30;;;;;;4991925;28;20452;-76
2022/06/14 22:22:22;;;;;;;4.50;1.70;;;9.60;96.30;;;;;;4974871;28;20198;-76
2022/06/14 22:24:48;;;;;;;3.37;2.10;;;9.60;96.30;;;;;;4975674;28;20646;-76
2022/06/14 22:27:21;;;;;;;6.40;2.03;;;9.50;96.30;;;;;;4995476;28;20162;-76
2022/06/14 22:29:55;;;;;;;6.20;1.80;;;9.50;96.30;;;;;;4994840;28;20291;-76
2022/06/14 22:32:21;;;;;;;3.13;2.27;;;9.40;96.30;;;;;;4977867;28;20515;-77
2022/06/14 22:34:50;;;;;;;9.57;2.20;;;9.30;96.30;;;;;;4977515;28;20483;-76
2022/06/14 22:37:16;;;;;;;2.33;1.40;;;9.30;96.30;;;;;;4977779;28;20405;-76
2022/06/14 22:39:42;;;;;;;4.20;2.43;;;9.20;96.30;;;;;;4995269;28;20437;-76
2022/06/14 22:42:10;;;;;;;5.47;1.60;;;9.20;96.30;;;;;;4994878;28;20514;-76
2022/06/14 22:44:37;;;;;;;2.83;1.70;;;9.30;96.30;;;;;;4994834;28;20184;-77
2022/06/14 22:47:03;;;;;;;2.60;1.93;;;9.30;96.30;;;;;;4995317;28;20452;-77
2022/06/14 22:49:28;;;;;;;6.20;1.80;;;9.30;96.30;;;;;;4977441;28;20948;-77
2022/06/14 22:51:56;;;;;;;3.47;1.67;;;9.30;96.30;;;;;;4994970;28;20457;-77
2022/06/14 22:54:22;;;;;;;8.87;2.10;;;9.20;96.30;;;;;;4995115;28;20823;-75
2022/06/14 22:56:52;;;;;;;2.50;1.87;;;9.00;96.30;;;;;;4994945;28;20460;-75
2022/06/14 22:59:20;;;;;;;8.53;2.17;;;9.00;96.30;;;;;;4994990;28;20501;-77
2022/06/14 23:01:47;;;;;;;2.90;2.00;;;9.10;96.30;;;;;;4994393;28;20484;-77
2022/06/14 23:04:12;;;;;;;6.33;2.23;;;9.10;96.30;;;;;;4993685;28;20409;-77
2022/06/14 23:06:41;;;;;;;2.43;2.10;;;9.00;96.30;;;;;;4972868;28;21003;-77
2022/06/14 23:09:07;;;;;;;7.63;2.40;;;9.00;96.30;;;;;;4970791;28;20182;-76
2022/06/14 23:11:33;;;;;;;2.70;1.80;;;9.00;96.30;;;;;;4992786;28;20499;-76
2022/06/14 23:13:58;;;;;;;3.43;1.90;;;8.90;96.30;;;;;;4990838;28;20424;-78
2022/06/14 23:16:24;;;;;;;3.80;2.07;;;8.90;96.30;;;;;;4992651;28;20280;-78